createdAt,value
2018-10-03T00:01:55.652Z,99760.00
2018-10-03T00:04:23.882Z,99763.00
2018-10-03T00:06:51.869Z,99762.00
2018-10-03T00:09:20.236Z,99760.00
2018-10-03T00:11:48.640Z,99761.00
2018-10-03T00:14:16.824Z,99764.00
2018-10-03T00:16:45.616Z,99760.00
2018-10-03T00:19:13.870Z,99756.00
2018-10-03T00:21:42.147Z,99752.00
2018-10-03T00:24:10.401Z,99762.00
2018-10-03T00:26:38.588Z,99754.00
2018-10-03T00:29:06.846Z,99757.00
2018-10-03T00:31:35.007Z,99763.00
2018-10-03T00:34:03.162Z,99758.00
2018-10-03T00:36:31.378Z,99754.00
2018-10-03T00:38:59.538Z,99750.00
2018-10-03T00:41:27.624Z,99759.00
2018-10-03T00:43:55.665Z,99762.00
2018-10-03T00:46:23.781Z,99764.00
2018-10-03T00:48:51.953Z,99767.00
2018-10-03T00:51:20.131Z,99769.00
2018-10-03T00:53:48.241Z,99776.00
2018-10-03T00:56:16.381Z,99776.00
2018-10-03T00:58:44.412Z,99774.00
2018-10-03T01:01:12.506Z,99773.00
2018-10-03T01:03:41.298Z,99772.00
2018-10-03T01:06:09.517Z,99770.00
2018-10-03T01:08:37.729Z,99760.00
2018-10-03T01:11:05.818Z,99754.00
2018-10-03T01:13:34.240Z,99753.00
2018-10-03T01:16:02.353Z,99760.00
2018-10-03T01:18:30.542Z,99764.00
2018-10-03T01:20:58.743Z,99754.00
2018-10-03T01:23:26.966Z,99745.00
2018-10-03T01:25:55.099Z,99742.00
2018-10-03T01:28:23.348Z,99748.00
2018-10-03T01:30:52.140Z,99746.00
2018-10-03T01:33:20.295Z,99740.00
2018-10-03T01:35:48.358Z,99749.00
2018-10-03T01:38:16.489Z,99748.00
2018-10-03T01:40:44.632Z,99746.00
2018-10-03T01:43:12.770Z,99746.00
2018-10-03T01:45:40.818Z,99745.00
2018-10-03T01:48:08.881Z,99749.00
2018-10-03T01:50:36.994Z,99740.00
2018-10-03T01:53:05.221Z,99746.00
2018-10-03T01:55:33.313Z,99738.00
2018-10-03T01:58:01.537Z,99739.00
2018-10-03T02:00:30.348Z,99744.00
2018-10-03T02:02:58.466Z,99751.00
2018-10-03T02:05:26.718Z,99748.00
2018-10-03T02:07:54.801Z,99746.00
2018-10-03T02:10:22.926Z,99749.00
2018-10-03T02:12:51.194Z,99749.00
2018-10-03T02:15:19.390Z,99758.00
2018-10-03T02:17:47.589Z,99756.00
2018-10-03T02:20:15.717Z,99746.00
2018-10-03T02:22:43.933Z,99746.00
2018-10-03T02:25:12.121Z,99751.00
2018-10-03T02:27:40.165Z,99750.00
2018-10-03T02:30:08.517Z,99748.00
2018-10-03T02:32:36.650Z,99751.00
2018-10-03T02:35:05.065Z,99759.00
2018-10-03T02:37:33.286Z,99755.00
2018-10-03T02:40:01.624Z,99756.00
2018-10-03T02:42:29.791Z,99762.00
2018-10-03T02:44:57.953Z,99761.00
2018-10-03T02:47:26.936Z,99769.00
2018-10-03T02:49:55.020Z,99770.00
2018-10-03T02:52:23.227Z,99769.00
2018-10-03T02:54:51.501Z,99779.00
2018-10-03T02:57:19.702Z,99779.00
2018-10-03T02:59:47.763Z,99774.00
2018-10-03T03:02:15.840Z,99773.00
2018-10-03T03:04:43.887Z,99773.00
2018-10-03T03:07:12.077Z,99773.00
2018-10-03T03:09:40.127Z,99779.00
2018-10-03T03:12:08.249Z,99773.00
2018-10-03T03:14:36.731Z,99774.00
2018-10-03T03:17:04.991Z,99776.00
2018-10-03T03:19:33.252Z,99770.00
2018-10-03T03:22:02.102Z,99768.00
2018-10-03T03:24:30.276Z,99767.00
2018-10-03T03:26:58.524Z,99767.00
2018-10-03T03:29:26.864Z,99762.00
2018-10-03T03:31:55.012Z,99762.00
2018-10-03T03:34:23.188Z,99763.00
2018-10-03T03:36:51.249Z,99766.00
2018-10-03T03:39:19.508Z,99765.00
2018-10-03T03:41:47.756Z,99773.00
2018-10-03T03:44:16.064Z,99782.00
2018-10-03T03:46:44.186Z,99782.00
2018-10-03T03:49:12.291Z,99788.00
2018-10-03T03:51:40.355Z,99802.00
2018-10-03T03:54:08.434Z,99810.00
2018-10-03T03:56:36.727Z,99813.00
2018-10-03T03:59:04.845Z,99822.00
2018-10-03T04:01:33.053Z,99827.00
2018-10-03T04:04:01.794Z,99825.00
2018-10-03T04:06:29.963Z,99826.00
2018-10-03T04:08:58.000Z,99831.00
2018-10-03T04:11:26.085Z,99834.00
2018-10-03T04:13:54.248Z,99835.00
2018-10-03T04:16:22.405Z,99831.00
2018-10-03T04:18:50.568Z,99832.00
2018-10-03T04:21:23.269Z,99832.00
2018-10-03T04:23:51.433Z,99839.00
2018-10-03T04:26:19.569Z,99840.00
2018-10-03T04:28:47.697Z,99835.00
2018-10-03T04:31:15.809Z,99835.00
2018-10-03T04:33:43.882Z,99833.00
2018-10-03T04:36:12.176Z,99830.00
2018-10-03T04:38:40.287Z,99826.00
2018-10-03T04:41:08.613Z,99834.00
2018-10-03T04:43:36.753Z,99845.00
2018-10-03T04:46:04.798Z,99848.00
2018-10-03T04:48:32.936Z,99846.00
2018-10-03T04:51:01.197Z,99851.00
2018-10-03T04:53:29.905Z,99853.00
2018-10-03T04:55:58.801Z,99856.00
2018-10-03T04:58:26.972Z,99852.00
2018-10-03T05:00:55.222Z,99855.00
2018-10-03T05:03:23.444Z,99854.00
2018-10-03T05:05:51.682Z,99857.00
2018-10-03T05:08:20.509Z,99863.00
2018-10-03T05:10:48.759Z,99861.00
2018-10-03T05:13:16.906Z,99871.00
2018-10-03T05:15:45.041Z,99868.00
2018-10-03T05:18:13.129Z,99875.00
2018-10-03T05:20:41.192Z,99885.00
2018-10-03T05:23:09.393Z,99882.00
2018-10-03T05:25:38.248Z,99884.00
2018-10-03T05:28:06.396Z,99883.00
2018-10-03T05:30:34.448Z,99891.00
2018-10-03T05:33:02.821Z,99891.00
2018-10-03T05:35:31.025Z,99894.00
2018-10-03T05:37:59.097Z,99900.00
2018-10-03T05:40:27.224Z,99901.00
2018-10-03T05:42:55.333Z,99907.00
2018-10-03T05:45:24.205Z,99912.00
2018-10-03T05:47:52.285Z,99913.00
2018-10-03T05:50:20.495Z,99922.00
2018-10-03T05:52:48.564Z,99925.00
2018-10-03T05:55:16.778Z,99929.00
2018-10-03T05:57:44.886Z,99933.00
2018-10-03T06:00:13.070Z,99937.00
2018-10-03T06:02:41.220Z,99939.00
2018-10-03T06:05:09.413Z,99940.00
2018-10-03T06:07:37.534Z,99934.00
2018-10-03T06:10:05.756Z,99940.00
2018-10-03T06:12:33.943Z,99950.00
2018-10-03T06:15:02.124Z,99954.00
2018-10-03T06:17:30.252Z,99958.00
2018-10-03T06:19:58.360Z,99956.00
2018-10-03T06:22:26.604Z,99962.00
2018-10-03T06:24:54.856Z,99964.00
2018-10-03T06:27:23.881Z,99968.00
2018-10-03T06:29:52.169Z,99971.00
2018-10-03T06:32:20.361Z,99982.00
2018-10-03T06:34:48.472Z,99980.00
2018-10-03T06:37:16.624Z,99988.00
2018-10-03T06:39:44.954Z,99984.00
2018-10-03T06:42:12.960Z,99991.00
2018-10-03T06:44:41.213Z,99998.00
2018-10-03T06:47:09.719Z,100003.00
2018-10-03T06:49:38.630Z,100006.00
2018-10-03T06:52:07.138Z,100010.00
2018-10-03T06:54:35.246Z,100007.00
2018-10-03T06:57:03.597Z,100009.00
2018-10-03T06:59:31.658Z,100011.00
2018-10-03T07:01:59.815Z,100013.00
2018-10-03T07:04:28.026Z,100014.00
2018-10-03T07:06:56.127Z,100013.00
2018-10-03T07:09:24.243Z,100014.00
2018-10-03T07:11:52.527Z,100015.00
2018-10-03T07:14:20.730Z,100020.00
2018-10-03T07:16:48.922Z,100031.00
2018-10-03T07:19:17.076Z,100042.00
2018-10-03T07:21:45.205Z,100048.00
2018-10-03T07:24:13.344Z,100039.00
2018-10-03T07:26:41.600Z,100044.00
2018-10-03T07:29:09.634Z,100042.00
2018-10-03T07:31:37.888Z,100051.00
2018-10-03T07:34:06.023Z,100049.00
2018-10-03T07:36:35.071Z,100049.00
2018-10-03T07:39:04.991Z,100055.00
2018-10-03T07:41:33.339Z,100059.00
2018-10-03T07:44:01.539Z,100051.00
2018-10-03T07:46:29.703Z,100046.00
2018-10-03T07:48:57.991Z,100055.00
2018-10-03T07:51:26.208Z,100055.00
2018-10-03T07:53:54.476Z,100069.00
2018-10-03T07:56:22.733Z,100057.00
2018-10-03T07:58:50.986Z,100063.00
2018-10-03T08:01:19.182Z,100069.00
2018-10-03T08:03:47.415Z,100069.00
2018-10-03T08:06:15.662Z,100063.00
2018-10-03T08:08:43.897Z,100067.00
2018-10-03T08:11:12.140Z,100071.00
2018-10-03T08:13:40.220Z,100047.00
2018-10-03T08:16:08.552Z,100074.00
2018-10-03T08:18:36.598Z,100054.00
2018-10-03T08:21:04.942Z,100055.00
2018-10-03T08:23:33.197Z,100054.00
2018-10-03T08:26:01.430Z,100058.00
2018-10-03T08:28:29.688Z,100070.00
2018-10-03T08:30:57.904Z,100078.00
2018-10-03T08:33:26.197Z,100082.00
2018-10-03T08:35:54.431Z,100090.00
2018-10-03T08:38:22.666Z,100089.00
2018-10-03T08:40:50.917Z,100086.00
2018-10-03T08:43:19.136Z,100084.00
2018-10-03T08:45:47.409Z,100092.00
2018-10-03T08:48:15.643Z,100115.00
2018-10-03T08:50:43.695Z,100099.00
2018-10-03T08:53:11.956Z,100108.00
2018-10-03T08:55:40.114Z,100099.00
2018-10-03T08:58:08.393Z,100103.00
2018-10-03T09:00:36.524Z,100105.00
2018-10-03T09:03:04.698Z,100112.00
2018-10-03T09:05:32.838Z,100119.00
2018-10-03T09:08:11.265Z,100105.00
2018-10-03T09:10:40.734Z,100102.00
2018-10-03T09:13:08.909Z,100099.00
2018-10-03T09:15:37.034Z,100104.00
2018-10-03T09:18:05.357Z,100111.00
2018-10-03T09:20:34.326Z,100118.00
2018-10-03T09:23:02.515Z,100117.00
2018-10-03T09:25:30.711Z,100111.00
2018-10-03T09:27:58.737Z,100120.00
2018-10-03T09:30:26.807Z,100114.00
2018-10-03T09:32:54.880Z,100117.00
2018-10-03T09:35:22.998Z,100121.00
2018-10-03T09:37:51.263Z,100117.00
2018-10-03T09:40:19.451Z,100118.00
2018-10-03T09:42:47.674Z,100120.00
2018-10-03T09:45:15.834Z,100080.00
2018-10-03T09:47:43.971Z,100116.00
2018-10-03T09:50:12.047Z,100119.00
2018-10-03T09:52:40.979Z,100110.00
2018-10-03T09:55:09.170Z,100112.00
2018-10-03T09:57:37.382Z,100110.00
2018-10-03T10:00:06.377Z,100117.00
2018-10-03T10:02:34.769Z,100121.00
2018-10-03T10:05:03.047Z,100122.00
2018-10-03T10:07:31.390Z,100122.00
2018-10-03T10:09:59.548Z,100130.00
2018-10-03T10:12:27.676Z,100132.00
2018-10-03T10:14:55.850Z,100138.00
2018-10-03T10:17:24.062Z,100132.00
2018-10-03T10:19:52.179Z,100137.00
2018-10-03T10:22:20.340Z,100140.00
2018-10-03T10:24:48.499Z,100140.00
2018-10-03T10:27:16.581Z,100147.00
2018-10-03T10:29:44.725Z,100153.00
2018-10-03T10:32:12.868Z,100152.00
2018-10-03T10:34:40.994Z,100154.00
2018-10-03T10:37:09.137Z,100152.00
2018-10-03T10:39:37.209Z,100146.00
2018-10-03T10:42:05.851Z,100151.00
2018-10-03T10:44:33.972Z,100161.00
2018-10-03T10:47:02.090Z,100169.00
2018-10-03T10:49:30.176Z,100179.00
2018-10-03T10:51:58.314Z,100178.00
2018-10-03T10:54:26.549Z,100183.00
2018-10-03T10:56:54.737Z,100183.00
2018-10-03T10:59:22.833Z,100174.00
2018-10-03T11:01:51.009Z,100167.00
2018-10-03T11:04:19.404Z,100172.00
2018-10-03T11:06:47.606Z,100178.00
2018-10-03T11:09:15.617Z,100186.00
2018-10-03T11:11:43.686Z,100189.00
2018-10-03T11:14:11.865Z,100183.00
2018-10-03T11:16:39.940Z,100178.00
2018-10-03T11:19:08.057Z,100181.00
2018-10-03T11:21:36.068Z,100184.00
2018-10-03T11:24:04.407Z,100193.00
2018-10-03T11:26:32.559Z,100191.00
2018-10-03T11:29:00.778Z,100187.00
2018-10-03T11:31:28.917Z,100192.00
2018-10-03T11:33:57.405Z,100176.00
2018-10-03T11:36:26.346Z,100183.00
2018-10-03T11:38:54.566Z,100187.00
2018-10-03T11:41:22.821Z,100183.00
2018-10-03T11:43:51.077Z,100191.00
2018-10-03T11:46:19.248Z,100191.00
2018-10-03T11:48:47.384Z,100196.00
2018-10-03T11:51:15.469Z,100194.00
2018-10-03T11:53:43.584Z,100189.00
2018-10-03T11:56:11.917Z,100193.00
2018-10-03T11:58:40.020Z,100197.00
2018-10-03T12:01:08.511Z,100198.00
2018-10-03T12:03:36.720Z,100201.00
2018-10-03T12:06:05.030Z,100199.00
2018-10-03T12:08:33.227Z,100205.00
2018-10-03T12:11:01.436Z,100206.00
2018-10-03T12:13:29.628Z,100200.00
2018-10-03T12:15:57.879Z,100203.00
2018-10-03T12:18:25.930Z,100205.00
2018-10-03T12:20:54.093Z,100195.00
2018-10-03T12:23:22.273Z,100196.00
2018-10-03T12:25:50.534Z,100191.00
2018-10-03T12:28:18.642Z,100139.00
2018-10-03T12:30:46.705Z,100171.00
2018-10-03T12:33:15.023Z,100181.00
2018-10-03T12:35:43.288Z,100170.00
2018-10-03T12:38:11.609Z,100177.00
2018-10-03T12:40:39.898Z,100164.00
2018-10-03T12:43:08.088Z,100159.00
2018-10-03T12:45:36.405Z,100160.00
2018-10-03T12:48:04.704Z,100165.00
2018-10-03T12:50:32.887Z,100167.00
2018-10-03T12:53:01.181Z,100168.00
2018-10-03T12:55:29.463Z,100162.00
2018-10-03T12:57:57.645Z,100167.00
2018-10-03T13:00:31.874Z,100175.00
2018-10-03T13:03:01.996Z,100166.00
2018-10-03T13:05:30.211Z,100178.00
2018-10-03T13:07:58.712Z,100179.00
2018-10-03T13:10:27.182Z,100178.00
2018-10-03T13:12:55.414Z,100175.00
2018-10-03T13:15:23.692Z,100175.00
2018-10-03T13:17:51.896Z,100176.00
2018-10-03T13:20:20.144Z,100181.00
2018-10-03T13:22:48.363Z,100184.00
2018-10-03T13:25:16.620Z,100182.00
2018-10-03T13:27:44.887Z,100181.00
2018-10-03T13:30:13.024Z,100170.00
2018-10-03T13:32:41.227Z,100168.00
2018-10-03T13:35:09.661Z,100159.00
2018-10-03T13:37:37.858Z,100167.00
2018-10-03T13:40:06.177Z,100172.00
2018-10-03T13:42:34.349Z,100179.00
2018-10-03T13:45:02.491Z,100194.00
2018-10-03T13:47:30.591Z,100198.00
2018-10-03T13:49:58.682Z,100206.00
2018-10-03T13:52:26.742Z,100206.00
2018-10-03T13:54:54.849Z,100201.00
2018-10-03T13:57:23.110Z,100208.00
2018-10-03T13:59:51.292Z,100198.00
2018-10-03T14:02:19.407Z,100191.00
2018-10-03T14:04:47.620Z,100194.00
2018-10-03T14:07:15.820Z,100191.00
2018-10-03T14:09:43.998Z,100184.00
2018-10-03T14:12:12.222Z,100201.00
2018-10-03T14:14:40.304Z,100197.00
2018-10-03T14:17:08.730Z,100199.00
2018-10-03T14:19:37.025Z,100198.00
2018-10-03T14:22:05.950Z,100195.00
2018-10-03T14:24:34.155Z,100193.00
2018-10-03T14:27:02.327Z,100191.00
2018-10-03T14:29:30.549Z,100195.00
2018-10-03T14:31:58.766Z,100193.00
2018-10-03T14:34:26.878Z,100202.00
2018-10-03T14:36:55.587Z,100203.00
2018-10-03T14:39:23.682Z,100199.00
2018-10-03T14:41:51.797Z,100205.00
2018-10-03T14:44:20.109Z,100207.00
2018-10-03T14:46:48.371Z,100210.00
2018-10-03T14:49:16.529Z,100212.00
2018-10-03T14:51:44.781Z,100205.00
2018-10-03T14:54:13.021Z,100209.00
2018-10-03T14:56:41.213Z,100214.00
2018-10-03T14:59:09.253Z,100218.00
2018-10-03T15:01:37.470Z,100209.00
2018-10-03T15:04:05.575Z,100217.00
2018-10-03T15:06:33.697Z,100212.00
2018-10-03T15:09:01.710Z,100219.00
2018-10-03T15:11:29.745Z,100228.00
2018-10-03T15:13:57.957Z,100229.00
2018-10-03T15:16:26.031Z,100229.00
2018-10-03T15:18:54.438Z,100230.00
2018-10-03T15:21:22.608Z,100233.00
2018-10-03T15:23:50.665Z,100240.00
2018-10-03T15:26:18.714Z,100244.00
2018-10-03T15:28:46.944Z,100247.00
2018-10-03T15:31:15.145Z,100247.00
2018-10-03T15:33:43.432Z,100256.00
2018-10-03T15:36:11.633Z,100257.00
2018-10-03T15:38:39.821Z,100263.00
2018-10-03T15:41:08.195Z,100259.00
2018-10-03T15:43:36.909Z,100268.00
2018-10-03T15:46:05.114Z,100271.00
2018-10-03T15:48:34.264Z,100270.00
2018-10-03T15:51:02.336Z,100271.00
2018-10-03T15:53:30.524Z,100276.00
2018-10-03T15:55:58.683Z,100269.00
2018-10-03T15:58:26.795Z,100272.00
2018-10-03T16:00:54.853Z,100276.00
2018-10-03T16:03:23.034Z,100274.00
2018-10-03T16:05:51.264Z,100283.00
2018-10-03T16:08:19.359Z,100281.00
2018-10-03T16:10:47.444Z,100284.00
2018-10-03T16:13:15.617Z,100278.00
2018-10-03T16:15:43.784Z,100279.00
2018-10-03T16:18:11.948Z,100283.00
2018-10-03T16:20:40.076Z,100290.00
2018-10-03T16:23:08.141Z,100291.00
2018-10-03T16:25:36.297Z,100297.00
2018-10-03T16:28:04.430Z,100301.00
2018-10-03T16:30:32.596Z,100301.00
2018-10-03T16:33:00.800Z,100314.00
2018-10-03T16:35:28.814Z,100317.00
2018-10-03T16:37:56.976Z,100325.00
2018-10-03T16:40:25.171Z,100331.00
2018-10-03T16:42:53.325Z,100333.00
2018-10-03T16:45:21.401Z,100341.00
2018-10-03T16:47:49.488Z,100348.00
2018-10-03T16:50:17.622Z,100347.00
2018-10-03T16:52:45.889Z,100345.00
2018-10-03T16:55:14.128Z,100352.00
2018-10-03T16:57:42.389Z,100353.00
2018-10-03T17:00:10.670Z,100352.00
2018-10-03T17:02:38.840Z,100356.00
2018-10-03T17:05:07.062Z,100362.00
2018-10-03T17:07:35.370Z,100364.00
2018-10-03T17:10:05.016Z,100366.00
2018-10-03T17:12:33.067Z,100368.00
2018-10-03T17:15:01.159Z,100371.00
2018-10-03T17:17:29.351Z,100372.00
2018-10-03T17:19:57.563Z,100375.00
2018-10-03T17:22:25.731Z,100378.00
2018-10-03T17:24:53.882Z,100379.00
2018-10-03T17:27:22.082Z,100383.00
2018-10-03T17:29:50.244Z,100386.00
2018-10-03T17:32:18.552Z,100391.00
2018-10-03T17:34:46.582Z,100396.00
2018-10-03T17:37:14.913Z,100408.00
2018-10-03T17:39:42.974Z,100404.00
2018-10-03T17:42:11.142Z,100411.00
2018-10-03T17:44:39.345Z,100418.00
2018-10-03T17:47:07.424Z,100417.00
2018-10-03T17:49:35.581Z,100415.00
2018-10-03T17:52:03.764Z,100416.00
2018-10-03T17:54:31.904Z,100420.00
2018-10-03T17:57:00.067Z,100421.00
2018-10-03T17:59:28.319Z,100433.00
2018-10-03T18:01:59.795Z,100437.00
2018-10-03T18:04:27.994Z,100442.00
2018-10-03T18:06:56.108Z,100441.00
2018-10-03T18:09:24.368Z,100446.00
2018-10-03T18:11:52.574Z,100446.00
2018-10-03T18:14:20.776Z,100442.00
2018-10-03T18:16:49.050Z,100445.00
2018-10-03T18:19:17.112Z,100444.00
2018-10-03T18:21:45.348Z,100450.00
2018-10-03T18:24:13.764Z,100447.00
2018-10-03T18:26:42.019Z,100450.00
2018-10-03T18:29:10.280Z,100457.00
2018-10-03T18:31:38.557Z,100458.00
2018-10-03T18:34:07.141Z,100463.00
2018-10-03T18:36:35.471Z,100463.00
2018-10-03T18:39:05.340Z,100460.00
2018-10-03T18:41:33.449Z,100461.00
2018-10-03T18:44:01.647Z,100465.00
2018-10-03T18:46:29.765Z,100462.00
2018-10-03T18:48:58.055Z,100462.00
2018-10-03T18:51:26.164Z,100458.00
2018-10-03T18:53:54.457Z,100462.00
2018-10-03T18:56:22.765Z,100460.00
2018-10-03T18:58:51.102Z,100461.00
2018-10-03T19:01:19.565Z,100463.00
2018-10-03T19:03:48.253Z,100476.00
2018-10-03T19:06:17.047Z,100470.00
2018-10-03T19:08:45.497Z,100480.00
2018-10-03T19:11:14.874Z,100473.00
2018-10-03T19:13:43.465Z,100478.00
2018-10-03T19:16:11.661Z,100484.00
2018-10-03T19:18:40.210Z,100490.00
2018-10-03T19:21:08.791Z,100498.00
2018-10-03T19:23:36.969Z,100499.00
2018-10-03T19:26:05.284Z,100501.00
2018-10-03T19:28:33.384Z,100499.00
2018-10-03T19:31:01.569Z,100501.00
2018-10-03T19:33:29.874Z,100500.00
2018-10-03T19:35:58.301Z,100499.00
2018-10-03T19:38:26.761Z,100498.00
2018-10-03T19:40:55.266Z,100502.00
2018-10-03T19:43:23.630Z,100505.00
2018-10-03T19:45:51.991Z,100512.00
2018-10-03T19:48:20.415Z,100512.00
2018-10-03T19:50:48.517Z,100515.00
2018-10-03T19:53:21.283Z,100519.00
2018-10-03T19:55:49.928Z,100525.00
2018-10-03T19:58:18.126Z,100522.00
2018-10-03T20:00:46.380Z,100521.00
2018-10-03T20:03:14.636Z,100523.00
2018-10-03T20:05:42.774Z,100523.00
2018-10-03T20:08:10.946Z,100528.00
2018-10-03T20:10:39.137Z,100535.00
2018-10-03T20:13:07.437Z,100533.00
2018-10-03T20:15:35.660Z,100530.00
2018-10-03T20:18:03.775Z,100524.00
2018-10-03T20:20:31.952Z,100524.00
2018-10-03T20:23:00.142Z,100522.00
2018-10-03T20:25:28.381Z,100522.00
2018-10-03T20:27:56.518Z,100533.00
2018-10-03T20:30:24.826Z,100531.00
2018-10-03T20:32:52.936Z,100534.00
2018-10-03T20:35:21.165Z,100537.00
2018-10-03T20:37:49.296Z,100542.00
2018-10-03T20:40:17.452Z,100548.00
2018-10-03T20:42:45.680Z,100551.00
2018-10-03T20:45:13.950Z,100547.00
2018-10-03T20:47:42.221Z,100550.00
2018-10-03T20:50:11.726Z,100548.00
2018-10-03T20:52:39.974Z,100551.00
2018-10-03T20:55:08.436Z,100552.00
2018-10-03T20:57:36.566Z,100547.00
2018-10-03T21:00:04.764Z,100547.00
2018-10-03T21:02:32.890Z,100548.00
2018-10-03T21:05:01.147Z,100546.00
2018-10-03T21:07:29.338Z,100550.00
2018-10-03T21:09:57.425Z,100549.00
2018-10-03T21:12:25.591Z,100549.00
2018-10-03T21:14:53.750Z,100553.00
2018-10-03T21:17:22.031Z,100554.00
2018-10-03T21:19:50.078Z,100547.00
2018-10-03T21:22:18.174Z,100550.00
2018-10-03T21:24:46.337Z,100549.00
2018-10-03T21:27:14.533Z,100552.00
2018-10-03T21:29:42.661Z,100559.00
2018-10-03T21:32:10.863Z,100561.00
2018-10-03T21:34:39.013Z,100560.00
2018-10-03T21:37:12.247Z,100557.00
2018-10-03T21:39:40.337Z,100562.00
2018-10-03T21:42:09.470Z,100564.00
2018-10-03T21:44:37.666Z,100565.00
2018-10-03T21:47:05.941Z,100561.00
2018-10-03T21:49:34.168Z,100556.00
2018-10-03T21:52:02.403Z,100560.00
2018-10-03T21:54:30.571Z,100559.00
2018-10-03T21:57:03.926Z,100552.00
2018-10-03T21:59:32.222Z,100555.00
2018-10-03T22:02:00.509Z,100553.00
2018-10-03T22:04:28.669Z,100553.00
2018-10-03T22:06:57.103Z,100549.00
2018-10-03T22:09:25.188Z,100548.00
2018-10-03T22:11:53.338Z,100550.00
2018-10-03T22:14:21.388Z,100547.00
2018-10-03T22:16:49.553Z,100545.00
2018-10-03T22:19:17.655Z,100550.00
2018-10-03T22:21:45.850Z,100554.00
2018-10-03T22:24:14.003Z,100554.00
2018-10-03T22:26:42.118Z,100558.00
2018-10-03T22:29:10.309Z,100565.00
2018-10-03T22:31:38.654Z,100564.00
2018-10-03T22:34:06.857Z,100564.00
2018-10-03T22:36:35.193Z,100568.00
2018-10-03T22:39:04.332Z,100570.00
2018-10-03T22:41:32.405Z,100572.00
2018-10-03T22:44:00.487Z,100569.00
2018-10-03T22:46:28.631Z,100571.00
2018-10-03T22:48:56.655Z,100569.00
2018-10-03T22:51:24.876Z,100563.00
2018-10-03T22:53:53.328Z,100569.00
2018-10-03T22:56:21.542Z,100572.00
2018-10-03T22:58:49.879Z,100575.00
2018-10-03T23:01:18.089Z,100568.00
2018-10-03T23:03:46.226Z,100575.00
2018-10-03T23:06:14.590Z,100578.00
2018-10-03T23:08:43.309Z,100576.00
2018-10-03T23:11:11.345Z,100577.00
2018-10-03T23:13:40.057Z,100576.00
2018-10-03T23:16:08.498Z,100575.00
2018-10-03T23:18:36.559Z,100574.00
2018-10-03T23:21:05.010Z,100573.00
2018-10-03T23:23:33.362Z,100576.00
2018-10-03T23:26:01.385Z,100577.00
2018-10-03T23:28:29.608Z,100583.00
2018-10-03T23:30:57.749Z,100582.00
2018-10-03T23:33:25.933Z,100581.00
2018-10-03T23:35:54.695Z,100585.00
2018-10-03T23:38:22.778Z,100592.00
2018-10-03T23:40:50.881Z,100594.00
2018-10-03T23:43:19.197Z,100595.00
2018-10-03T23:45:47.253Z,100598.00
2018-10-03T23:48:15.650Z,100595.00
2018-10-03T23:50:43.712Z,100600.00
2018-10-03T23:53:11.961Z,100604.00
2018-10-03T23:55:40.233Z,100608.00
2018-10-03T23:58:08.456Z,100616.00
